Frisby, Kentucky
Current Conditions -  °F | °C
As of 12:56 AM on Saturday 29 Nov 2014 (Local Time) from KEKQ Reporting Station
Clear Clear  
Wind Chill: 36°   Ceiling: Unl
Heat Index: 41°   Visibility: 10mi
Dew Point: 21°   Wind: 8mph
Humidity: 45%   Direction: 170°S
Pressure: 30.14"   Gusts: NA
Location:  36.8129°N, 84.8215°W
Report Text: KEKQ 290556Z AUTO 17007KT 10SM CLR 05/M06 A3014 RMK AO2 56013 T00501061 10050 20027 SLP212
Loading
Personal Weather Stations






























Interactive Weather Map New forecast layout! Learn more

10-Day Weather Forecast

Advertisements
Track Severe Weather on mobile